Time;durP1;ratioP1;P1;durP2;ratioP2;P2;SDS_P1;SDS_P2;PMS_P1;PMS_P2;Temp;Humidity;BMP_temperature;BMP_pressure;BME280_temperature;BME280_humidity;BME280_pressure;Samples;Min_cycle;Max_cycle;Signal;HPM_P1;HPM_P2
2023/02/01 00:00:43;;;;;;;2.13;1.27;;;;;;;;;;5005093;28;20042;-61
2023/02/01 00:03:08;;;;;;;1.80;1.60;;;;;;;;;;4974285;28;20086;-61
2023/02/01 00:05:34;;;;;;;2.50;1.50;;;;;;;;;;5006611;28;20676;-58
2023/02/01 00:07:59;;;;;;;1.90;1.17;;;;;;;;;;5005379;28;20048;-59
2023/02/01 00:10:24;;;;;;;2.27;1.33;;;;;;;;;;5005613;28;20535;-59
2023/02/01 00:12:49;;;;;;;1.90;1.40;;;;;;;;;;4969513;28;20273;-59
2023/02/01 00:15:15;;;;;;;2.00;1.50;;;;;;;;;;5005724;28;20284;-57
2023/02/01 00:17:40;;;;;;;2.85;1.55;;;;;;;;;;5005782;28;20272;-60
2023/02/01 00:20:05;;;;;;;2.20;1.40;;;;;;;;;;5006224;28;20467;-61
2023/02/01 00:22:31;;;;;;;1.70;1.30;;;;;;;;;;4987686;28;20297;-56
2023/02/01 00:24:56;;;;;;;1.97;1.17;;;;;;;;;;4988275;28;20041;-58
2023/02/01 00:27:21;;;;;;;2.13;1.30;;;;;;;;;;4988069;28;20784;-59
2023/02/01 00:29:46;;;;;;;2.40;1.40;;;;;;;;;;4987769;28;20276;-59
2023/02/01 00:32:12;;;;;;;1.85;1.30;;;;;;;;;;5004878;28;20305;-57
2023/02/01 00:34:37;;;;;;;1.50;1.00;;;;;;;;;;4986605;28;20049;-60
2023/02/01 00:37:02;;;;;;;2.17;1.20;;;;;;;;;;4981974;28;20099;-60
2023/02/01 00:39:27;;;;;;;1.80;1.10;;;;;;;;;;4990512;28;20277;-60
2023/02/01 00:41:53;;;;;;;1.92;1.10;;;;;;;;;;5001525;28;21189;-57
2023/02/01 00:44:18;;;;;;;1.70;1.20;;;;;;;;;;4984191;28;20038;-60
2023/02/01 00:46:43;;;;;;;1.70;1.20;;;;;;;;;;4984182;28;20276;-61
2023/02/01 00:49:08;;;;;;;2.33;1.20;;;;;;;;;;4984127;28;20031;-61
2023/02/01 00:51:34;;;;;;;1.80;1.35;;;;;;;;;;4989504;28;20257;-59
2023/02/01 00:53:59;;;;;;;1.80;1.20;;;;;;;;;;5000268;28;20160;-60
2023/02/01 00:56:24;;;;;;;1.50;1.00;;;;;;;;;;4952052;28;20109;-59
2023/02/01 00:58:50;;;;;;;1.97;1.20;;;;;;;;;;4999775;28;20269;-61
2023/02/01 01:01:19;;;;;;;2.30;1.37;;;;;;;;;;4989426;28;20851;-57
2023/02/01 01:03:45;;;;;;;1.98;1.10;;;;;;;;;;4959281;28;20293;-60
2023/02/01 01:06:14;;;;;;;1.92;1.20;;;;;;;;;;5000654;28;20039;-59
2023/02/01 01:08:39;;;;;;;2.00;1.13;;;;;;;;;;4967854;28;20034;-64
2023/02/01 01:11:18;;;;;;;2.33;1.30;;;;;;;;;;4988892;28;20692;-60
2023/02/01 01:13:43;;;;;;;1.80;1.10;;;;;;;;;;4963888;28;20034;-60
2023/02/01 01:16:09;;;;;;;1.98;1.17;;;;;;;;;;4974063;28;20038;-60
2023/02/01 01:18:34;;;;;;;1.85;1.00;;;;;;;;;;5000265;28;20080;-58
2023/02/01 01:20:59;;;;;;;2.22;1.15;;;;;;;;;;4992366;28;20036;-58
2023/02/01 01:23:25;;;;;;;1.83;1.00;;;;;;;;;;4979640;28;20057;-55
2023/02/01 01:25:50;;;;;;;1.80;1.00;;;;;;;;;;4967935;28;20030;-58
2023/02/01 01:28:15;;;;;;;1.60;1.10;;;;;;;;;;4992568;28;20041;-58
2023/02/01 01:30:40;;;;;;;1.50;1.00;;;;;;;;;;5004207;28;20303;-58
2023/02/01 01:33:06;;;;;;;1.80;1.30;;;;;;;;;;4986254;28;20858;-57
2023/02/01 01:35:31;;;;;;;1.75;1.15;;;;;;;;;;5002724;28;20665;-56
2023/02/01 01:37:56;;;;;;;1.60;1.30;;;;;;;;;;4969900;28;20266;-57
2023/02/01 01:40:21;;;;;;;2.13;1.13;;;;;;;;;;5004145;28;20035;-58
2023/02/01 01:42:48;;;;;;;1.90;1.00;;;;;;;;;;4991318;28;20056;-57
2023/02/01 01:45:21;;;;;;;2.50;1.33;;;;;;;;;;4996773;28;20293;-59
2023/02/01 01:47:48;;;;;;;1.88;1.10;;;;;;;;;;4983840;28;20041;-59
2023/02/01 01:50:16;;;;;;;1.58;1.13;;;;;;;;;;4978086;28;20030;-59
2023/02/01 01:52:42;;;;;;;2.65;1.10;;;;;;;;;;4993928;28;20048;-58
2023/02/01 01:55:07;;;;;;;1.77;1.30;;;;;;;;;;4976643;28;20313;-57
2023/02/01 01:57:36;;;;;;;1.85;1.10;;;;;;;;;;4983973;28;20117;-58
2023/02/01 02:00:05;;;;;;;1.73;1.17;;;;;;;;;;4998956;28;20118;-58
2023/02/01 02:02:30;;;;;;;1.38;0.90;;;;;;;;;;4994563;28;20049;-58
2023/02/01 02:04:55;;;;;;;2.00;1.10;;;;;;;;;;5004196;28;20041;-58
2023/02/01 02:07:23;;;;;;;1.23;0.80;;;;;;;;;;4969811;28;20289;-57
2023/02/01 02:09:48;;;;;;;1.73;1.00;;;;;;;;;;4986005;28;20285;-60
2023/02/01 02:12:14;;;;;;;1.60;1.00;;;;;;;;;;4969360;28;20041;-56
2023/02/01 02:14:39;;;;;;;1.33;0.80;;;;;;;;;;4969880;28;20034;-60
2023/02/01 02:17:07;;;;;;;2.20;1.00;;;;;;;;;;4970186;28;20464;-58
2023/02/01 02:19:45;;;;;;;1.80;1.00;;;;;;;;;;5003797;28;20289;-58
2023/02/01 02:22:13;;;;;;;1.73;1.08;;;;;;;;;;4969963;28;20056;-58
2023/02/01 02:24:57;;;;;;;1.30;0.90;;;;;;;;;;4985847;28;20149;-58
2023/02/01 02:27:27;;;;;;;1.88;1.30;;;;;;;;;;5004246;28;20493;-57
2023/02/01 02:29:55;;;;;;;1.95;1.35;;;;;;;;;;5002401;28;20042;-59
2023/02/01 02:32:33;;;;;;;1.52;1.10;;;;;;;;;;5004311;28;20470;-59
2023/02/01 02:35:01;;;;;;;2.08;1.17;;;;;;;;;;5002986;28;20053;-59
2023/02/01 02:37:26;;;;;;;1.38;0.98;;;;;;;;;;4986657;28;20173;-61
2023/02/01 02:39:54;;;;;;;1.30;0.70;;;;;;;;;;4985866;28;20526;-57
2023/02/01 02:48:17;;;;;;;2.05;1.05;;;;;;;;;;4993440;28;20156;-60
2023/02/01 03:04:57;;;;;;;1.27;0.80;;;;;;;;;;5003275;28;20069;-57
2023/02/01 03:07:42;;;;;;;1.40;0.82;;;;;;;;;;4985671;28;20473;-60
2023/02/01 03:10:07;;;;;;;1.70;1.00;;;;;;;;;;4999292;28;20103;-56
2023/02/01 03:15:17;;;;;;;1.63;1.00;;;;;;;;;;4982288;28;20564;-58
2023/02/01 03:17:42;;;;;;;1.57;1.10;;;;;;;;;;5003739;28;20030;-58
2023/02/01 03:20:09;;;;;;;1.48;0.93;;;;;;;;;;4986723;28;20828;-60
2023/02/01 03:22:34;;;;;;;1.65;1.00;;;;;;;;;;4989625;28;20484;-56
2023/02/01 03:25:05;;;;;;;1.55;0.88;;;;;;;;;;5005734;28;20037;-59
2023/02/01 03:27:32;;;;;;;1.83;0.88;;;;;;;;;;4972050;28;20030;-58
2023/02/01 03:30:05;;;;;;;1.65;1.00;;;;;;;;;;4989287;28;20088;-60
2023/02/01 03:32:57;;;;;;;1.67;1.10;;;;;;;;;;5006765;28;20441;-59
2023/02/01 03:35:15;;;;;;;1.65;1.02;;;;;;;;;;4990449;28;20532;-60
2023/02/01 03:37:41;;;;;;;3.10;1.17;;;;;;;;;;4968963;28;20121;-58
2023/02/01 03:40:07;;;;;;;1.27;0.80;;;;;;;;;;4989287;28;20277;-56
2023/02/01 03:42:35;;;;;;;1.10;0.80;;;;;;;;;;4988592;28;20382;-59
2023/02/01 03:45:06;;;;;;;1.15;0.95;;;;;;;;;;5006610;28;20038;-59
2023/02/01 03:47:34;;;;;;;1.58;0.90;;;;;;;;;;5006191;28;20037;-58
2023/02/01 03:50:03;;;;;;;1.60;0.90;;;;;;;;;;4987550;28;20036;-58
2023/02/01 03:52:30;;;;;;;1.35;0.80;;;;;;;;;;4972234;28;20018;-55
2023/02/01 03:54:55;;;;;;;1.30;0.80;;;;;;;;;;4988503;28;20100;-59
2023/02/01 03:57:29;;;;;;;2.07;1.00;;;;;;;;;;4988313;28;20441;-59
2023/02/01 03:59:54;;;;;;;1.10;0.80;;;;;;;;;;4988467;28;20021;-59
2023/02/01 04:02:20;;;;;;;1.33;1.00;;;;;;;;;;4972204;28;20041;-60
2023/02/01 04:04:45;;;;;;;1.13;0.80;;;;;;;;;;5004263;28;20095;-57
2023/02/01 04:07:10;;;;;;;1.73;0.90;;;;;;;;;;5006274;28;20323;-60
2023/02/01 04:09:36;;;;;;;1.30;0.82;;;;;;;;;;4988102;28;20456;-59
2023/02/01 04:12:02;;;;;;;2.53;0.90;;;;;;;;;;5005765;28;20045;-58
2023/02/01 04:14:27;;;;;;;1.35;0.90;;;;;;;;;;5005086;28;20041;-58
2023/02/01 04:16:52;;;;;;;1.20;0.90;;;;;;;;;;5020842;28;20046;-57
2023/02/01 04:19:17;;;;;;;1.93;1.00;;;;;;;;;;4988072;28;20265;-59
2023/02/01 04:21:43;;;;;;;1.57;0.73;;;;;;;;;;5003932;28;20292;-62
2023/02/01 04:24:08;;;;;;;1.23;0.70;;;;;;;;;;4986482;28;20449;-57
2023/02/01 04:26:33;;;;;;;1.58;0.90;;;;;;;;;;4987903;28;20146;-58
2023/02/01 04:28:59;;;;;;;1.23;0.80;;;;;;;;;;5020371;28;20068;-58
2023/02/01 04:31:27;;;;;;;1.00;0.80;;;;;;;;;;5003367;28;20038;-56
2023/02/01 04:33:52;;;;;;;1.30;0.75;;;;;;;;;;5004993;28;20277;-59
2023/02/01 04:36:20;;;;;;;1.10;0.70;;;;;;;;;;4986149;28;20045;-60
2023/02/01 04:38:45;;;;;;;1.45;0.90;;;;;;;;;;5005811;28;20030;-58
2023/02/01 04:41:10;;;;;;;1.13;0.90;;;;;;;;;;4987047;28;20045;-61
2023/02/01 04:43:37;;;;;;;1.27;0.80;;;;;;;;;;5004847;28;20319;-56
2023/02/01 04:46:02;;;;;;;1.80;1.07;;;;;;;;;;5003593;28;20410;-58
2023/02/01 04:48:27;;;;;;;1.23;0.90;;;;;;;;;;4987434;28;20277;-59
2023/02/01 04:50:53;;;;;;;1.83;0.80;;;;;;;;;;5004884;28;20509;-56
2023/02/01 04:53:18;;;;;;;0.93;0.60;;;;;;;;;;4998768;28;20289;-59
2023/02/01 04:55:43;;;;;;;1.40;0.77;;;;;;;;;;4984322;28;20312;-58
2023/02/01 04:58:09;;;;;;;1.20;0.63;;;;;;;;;;4998460;28;20489;-59
2023/02/01 05:00:34;;;;;;;1.13;0.75;;;;;;;;;;4982824;28;20124;-58
2023/02/01 05:02:59;;;;;;;1.48;0.65;;;;;;;;;;5000375;28;20606;-58
2023/02/01 05:05:24;;;;;;;1.47;0.87;;;;;;;;;;4982763;28;20051;-60
2023/02/01 05:07:50;;;;;;;1.58;1.00;;;;;;;;;;4985403;28;20277;-59
2023/02/01 05:10:15;;;;;;;1.30;0.57;;;;;;;;;;4999805;28;20744;-60
2023/02/01 05:15:26;;;;;;;1.33;0.70;;;;;;;;;;4996847;28;20038;-59
2023/02/01 05:17:51;;;;;;;1.50;0.70;;;;;;;;;;4966906;28;20030;-60
2023/02/01 05:20:16;;;;;;;1.20;0.63;;;;;;;;;;4982927;28;20369;-58
2023/02/01 05:22:42;;;;;;;1.27;0.80;;;;;;;;;;4982715;28;20746;-60
2023/02/01 05:25:07;;;;;;;1.38;0.77;;;;;;;;;;4999040;28;20135;-60
2023/02/01 05:27:32;;;;;;;0.98;0.70;;;;;;;;;;4998677;28;20039;-61
2023/02/01 05:29:58;;;;;;;1.20;0.70;;;;;;;;;;4986058;28;20081;-59
2023/02/01 05:32:23;;;;;;;1.30;0.90;;;;;;;;;;4995740;28;20097;-61
2023/02/01 05:34:48;;;;;;;0.83;0.63;;;;;;;;;;4973338;28;20877;-58
2023/02/01 05:37:13;;;;;;;1.05;0.80;;;;;;;;;;4961743;28;20310;-58
2023/02/01 05:39:39;;;;;;;1.23;0.80;;;;;;;;;;4947046;28;20070;-59
2023/02/01 05:42:04;;;;;;;1.55;0.98;;;;;;;;;;4946111;28;20312;-58
2023/02/01 05:44:29;;;;;;;1.13;0.70;;;;;;;;;;4963220;28;20060;-58
2023/02/01 05:46:54;;;;;;;0.82;0.60;;;;;;;;;;4978740;28;20798;-59
2023/02/01 05:49:20;;;;;;;1.27;0.70;;;;;;;;;;4964120;28;20039;-60
2023/02/01 05:51:45;;;;;;;1.23;0.90;;;;;;;;;;4987122;28;20282;-59
2023/02/01 05:54:10;;;;;;;1.35;0.77;;;;;;;;;;4984021;28;20824;-61
2023/02/01 05:56:35;;;;;;;1.23;0.80;;;;;;;;;;4973975;28;20039;-59
2023/02/01 05:59:01;;;;;;;1.13;0.60;;;;;;;;;;4962549;28;20039;-57
2023/02/01 06:01:26;;;;;;;1.03;0.60;;;;;;;;;;4962193;28;20037;-58
2023/02/01 06:03:51;;;;;;;1.20;0.80;;;;;;;;;;4962897;28;20780;-60
2023/02/01 06:06:19;;;;;;;0.97;0.50;;;;;;;;;;4962649;28;21958;-60
2023/02/01 06:08:44;;;;;;;0.90;0.60;;;;;;;;;;4961913;28;20282;-58
2023/02/01 06:11:09;;;;;;;1.17;0.75;;;;;;;;;;4961111;28;20061;-57
2023/02/01 06:13:35;;;;;;;1.10;0.60;;;;;;;;;;4963595;28;20038;-62
2023/02/01 06:16:01;;;;;;;1.33;0.70;;;;;;;;;;4947355;28;20408;-59
2023/02/01 06:18:26;;;;;;;1.10;0.65;;;;;;;;;;4974338;28;20053;-58
2023/02/01 06:20:54;;;;;;;1.20;0.80;;;;;;;;;;4981772;28;20584;-56
2023/02/01 06:23:23;;;;;;;2.20;0.73;;;;;;;;;;4983130;28;20050;-61
2023/02/01 06:25:59;;;;;;;1.15;0.68;;;;;;;;;;4982699;28;20030;-60
2023/02/01 06:28:24;;;;;;;1.35;0.65;;;;;;;;;;4980944;28;20522;-56
2023/02/01 06:30:49;;;;;;;0.93;0.70;;;;;;;;;;4992913;28;20061;-58
2023/02/01 06:33:15;;;;;;;2.00;0.60;;;;;;;;;;4996730;28;20659;-56
2023/02/01 06:35:42;;;;;;;1.98;0.90;;;;;;;;;;4979524;28;20793;-59
2023/02/01 06:38:07;;;;;;;1.10;0.73;;;;;;;;;;4983375;28;20412;-56
2023/02/01 06:40:32;;;;;;;1.65;0.70;;;;;;;;;;4966444;28;20037;-59
2023/02/01 06:42:58;;;;;;;2.23;0.60;;;;;;;;;;4978945;28;20520;-62
2023/02/01 06:45:23;;;;;;;1.13;0.68;;;;;;;;;;4979186;28;20314;-66
2023/02/01 06:47:48;;;;;;;1.87;0.70;;;;;;;;;;4982416;28;20034;-58
2023/02/01 06:50:14;;;;;;;1.83;0.80;;;;;;;;;;4984951;28;20038;-58
2023/02/01 06:52:39;;;;;;;1.00;0.63;;;;;;;;;;4999697;28;20092;-58
2023/02/01 06:55:04;;;;;;;1.80;0.70;;;;;;;;;;4986469;28;20042;-58
2023/02/01 06:57:30;;;;;;;1.23;0.70;;;;;;;;;;4987904;28;20113;-58
2023/02/01 06:59:55;;;;;;;1.10;0.57;;;;;;;;;;4980221;28;20045;-60
2023/02/01 07:02:21;;;;;;;1.23;0.63;;;;;;;;;;4986337;28;20141;-57
2023/02/01 07:04:46;;;;;;;1.10;0.60;;;;;;;;;;4988051;28;20035;-58
2023/02/01 07:07:12;;;;;;;0.98;0.75;;;;;;;;;;4988213;28;20053;-62
2023/02/01 07:09:37;;;;;;;1.52;0.60;;;;;;;;;;4969089;28;20022;-58
2023/02/01 07:12:02;;;;;;;1.93;0.67;;;;;;;;;;5002215;28;20065;-56
2023/02/01 07:14:27;;;;;;;1.17;0.60;;;;;;;;;;4987311;28;20649;-58
2023/02/01 07:16:53;;;;;;;1.50;0.77;;;;;;;;;;4991093;28;20069;-57
2023/02/01 07:19:18;;;;;;;1.37;0.67;;;;;;;;;;4996186;28;20269;-58
2023/02/01 07:21:43;;;;;;;1.33;0.70;;;;;;;;;;4986549;28;20702;-57
2023/02/01 07:24:08;;;;;;;1.98;0.70;;;;;;;;;;4985400;28;20447;-57
2023/02/01 07:26:34;;;;;;;1.40;0.70;;;;;;;;;;4986709;28;20543;-58
2023/02/01 07:28:59;;;;;;;1.40;0.80;;;;;;;;;;4986525;28;20482;-58
2023/02/01 07:31:26;;;;;;;1.77;0.70;;;;;;;;;;4987111;28;20685;-58
2023/02/01 07:33:51;;;;;;;1.80;0.77;;;;;;;;;;4983992;28;20144;-57
2023/02/01 07:36:17;;;;;;;1.50;0.83;;;;;;;;;;4969185;28;20112;-59
2023/02/01 07:38:42;;;;;;;1.13;0.68;;;;;;;;;;5005686;28;20026;-60
2023/02/01 07:41:08;;;;;;;1.95;1.00;;;;;;;;;;4972616;28;20037;-58
2023/02/01 07:43:33;;;;;;;1.27;0.70;;;;;;;;;;4987333;28;20068;-57
2023/02/01 07:45:58;;;;;;;2.08;0.73;;;;;;;;;;5005966;28;20524;-59
2023/02/01 07:48:24;;;;;;;1.63;0.80;;;;;;;;;;5007056;28;20170;-59
2023/02/01 07:50:56;;;;;;;1.80;0.65;;;;;;;;;;5007125;28;20121;-57
2023/02/01 07:53:21;;;;;;;1.70;0.77;;;;;;;;;;4992652;28;20034;-61
2023/02/01 07:55:47;;;;;;;2.17;0.70;;;;;;;;;;4974619;28;20480;-58
2023/02/01 07:58:13;;;;;;;1.17;0.75;;;;;;;;;;4984111;28;20278;-62
2023/02/01 08:03:22;;;;;;;1.85;0.80;;;;;;;;;;5016485;28;20362;-62
2023/02/01 08:05:47;;;;;;;1.13;0.63;;;;;;;;;;4955085;28;20034;-56
2023/02/01 08:08:12;;;;;;;2.10;0.90;;;;;;;;;;4985219;28;20274;-59
2023/02/01 08:10:38;;;;;;;2.33;1.08;;;;;;;;;;4985243;28;20881;-59
2023/02/01 08:13:03;;;;;;;2.33;0.80;;;;;;;;;;4972075;28;20042;-59
2023/02/01 08:15:28;;;;;;;1.73;0.70;;;;;;;;;;4982758;28;20875;-58
2023/02/01 08:17:58;;;;;;;2.95;1.10;;;;;;;;;;5001766;28;20093;-62
2023/02/01 08:20:23;;;;;;;1.98;0.82;;;;;;;;;;4986819;28;20033;-60
2023/02/01 08:22:51;;;;;;;2.40;0.90;;;;;;;;;;4969685;28;20054;-57
2023/02/01 08:25:17;;;;;;;1.60;0.85;;;;;;;;;;4968308;28;20042;-61
2023/02/01 08:27:42;;;;;;;2.08;0.82;;;;;;;;;;5003411;28;20042;-63
2023/02/01 08:30:08;;;;;;;1.53;0.70;;;;;;;;;;4968810;28;20407;-56
2023/02/01 08:32:33;;;;;;;1.30;0.70;;;;;;;;;;4985432;28;20320;-61
2023/02/01 08:34:58;;;;;;;1.85;0.90;;;;;;;;;;5019558;28;20038;-60
2023/02/01 08:37:23;;;;;;;1.73;0.90;;;;;;;;;;4984905;28;20510;-61
2023/02/01 08:39:50;;;;;;;1.93;1.00;;;;;;;;;;4984900;28;20348;-60
2023/02/01 08:44:59;;;;;;;1.80;0.90;;;;;;;;;;5003887;28;20397;-57
2023/02/01 08:47:24;;;;;;;1.63;0.80;;;;;;;;;;4971255;28;20022;-59
2023/02/01 08:49:50;;;;;;;2.38;0.90;;;;;;;;;;4971409;28;20623;-59
2023/02/01 08:52:15;;;;;;;1.73;0.87;;;;;;;;;;5006219;28;20492;-57
2023/02/01 08:54:41;;;;;;;2.10;0.87;;;;;;;;;;4987772;28;20277;-58
2023/02/01 08:57:07;;;;;;;2.63;1.10;;;;;;;;;;5006020;28;20257;-60
2023/02/01 08:59:32;;;;;;;4.53;1.38;;;;;;;;;;5006037;28;20020;-59
2023/02/01 09:01:57;;;;;;;2.53;1.20;;;;;;;;;;4987095;28;20461;-60
2023/02/01 09:04:23;;;;;;;3.30;1.20;;;;;;;;;;4987911;28;20269;-61
2023/02/01 09:06:48;;;;;;;4.88;1.70;;;;;;;;;;4971152;28;20331;-60
2023/02/01 09:09:13;;;;;;;2.63;0.90;;;;;;;;;;4987742;28;20581;-56
2023/02/01 09:11:38;;;;;;;6.43;1.40;;;;;;;;;;4987313;28;20774;-59
2023/02/01 09:14:04;;;;;;;4.53;1.80;;;;;;;;;;4977187;28;20449;-61
2023/02/01 09:16:29;;;;;;;3.07;1.10;;;;;;;;;;4970446;28;20273;-59
2023/02/01 09:18:54;;;;;;;3.20;1.30;;;;;;;;;;4971059;28;20271;-56
2023/02/01 09:21:20;;;;;;;3.47;1.40;;;;;;;;;;5003427;28;20269;-59
2023/02/01 09:23:48;;;;;;;3.13;1.00;;;;;;;;;;5004787;28;20511;-60
2023/02/01 09:26:13;;;;;;;1.52;1.00;;;;;;;;;;5004119;28;20073;-60
2023/02/01 09:28:38;;;;;;;2.78;1.10;;;;;;;;;;5017892;28;20065;-59
2023/02/01 09:31:04;;;;;;;2.37;0.90;;;;;;;;;;4986338;28;20042;-58
2023/02/01 09:33:29;;;;;;;3.17;1.20;;;;;;;;;;4985242;28;20045;-61
2023/02/01 09:35:57;;;;;;;2.58;0.90;;;;;;;;;;4986014;28;20045;-59
2023/02/01 09:38:25;;;;;;;2.97;1.00;;;;;;;;;;5002603;28;20453;-56
2023/02/01 09:40:50;;;;;;;2.83;1.35;;;;;;;;;;5004354;28;20029;-59
2023/02/01 09:43:29;;;;;;;1.67;0.93;;;;;;;;;;4985615;28;20088;-61
2023/02/01 09:45:57;;;;;;;2.50;1.00;;;;;;;;;;5004442;28;20316;-55
2023/02/01 09:48:27;;;;;;;2.15;1.00;;;;;;;;;;5003951;28;20541;-58
2023/02/01 09:50:54;;;;;;;2.75;1.00;;;;;;;;;;4985254;28;20022;-60
2023/02/01 09:53:29;;;;;;;2.75;1.10;;;;;;;;;;4969004;28;20663;-60
2023/02/01 09:56:06;;;;;;;2.40;1.10;;;;;;;;;;5012263;28;20074;-59
2023/02/01 09:58:38;;;;;;;1.58;0.80;;;;;;;;;;4981984;28;20088;-56
2023/02/01 10:01:03;;;;;;;2.60;0.82;;;;;;;;;;4985649;28;20026;-56
2023/02/01 10:03:29;;;;;;;2.35;0.90;;;;;;;;;;4989021;28;20053;-58
2023/02/01 10:06:04;;;;;;;2.00;0.98;;;;;;;;;;4986730;28;20044;-56
2023/02/01 10:08:36;;;;;;;1.92;0.93;;;;;;;;;;4958877;28;20116;-56
2023/02/01 10:11:13;;;;;;;1.27;0.80;;;;;;;;;;4969088;28;20034;-56
2023/02/01 10:13:43;;;;;;;1.45;0.70;;;;;;;;;;5003681;28;20128;-56
2023/02/01 10:16:14;;;;;;;1.67;1.00;;;;;;;;;;4986574;28;20037;-56
2023/02/01 10:18:51;;;;;;;2.10;0.80;;;;;;;;;;4987097;28;20524;-56
2023/02/01 10:21:23;;;;;;;2.05;0.80;;;;;;;;;;5003997;28;20068;-56
2023/02/01 10:23:58;;;;;;;2.08;0.95;;;;;;;;;;5004270;28;20042;-57
2023/02/01 10:26:24;;;;;;;1.40;0.65;;;;;;;;;;4986064;28;20129;-57
2023/02/01 10:28:56;;;;;;;1.55;0.75;;;;;;;;;;4990445;28;20071;-58
2023/02/01 10:31:23;;;;;;;1.10;0.70;;;;;;;;;;4997803;28;20022;-57
2023/02/01 10:33:52;;;;;;;2.33;1.05;;;;;;;;;;4976006;28;20342;-58
2023/02/01 10:36:20;;;;;;;1.80;0.80;;;;;;;;;;4992627;28;20042;-57
2023/02/01 10:38:45;;;;;;;1.92;0.70;;;;;;;;;;4991717;28;20030;-58
2023/02/01 10:41:14;;;;;;;2.40;1.00;;;;;;;;;;4993124;28;20064;-58
2023/02/01 10:43:40;;;;;;;2.90;0.80;;;;;;;;;;5010093;28;20835;-57
2023/02/01 10:46:06;;;;;;;1.67;0.80;;;;;;;;;;4993052;28;20037;-58
2023/02/01 10:48:31;;;;;;;2.10;0.93;;;;;;;;;;5010167;28;20304;-55
2023/02/01 10:51:00;;;;;;;2.07;0.87;;;;;;;;;;5010541;28;20108;-56
2023/02/01 10:53:29;;;;;;;1.85;0.80;;;;;;;;;;5008043;28;20292;-57
2023/02/01 10:55:54;;;;;;;2.50;0.85;;;;;;;;;;4976673;28;20434;-57
2023/02/01 10:58:27;;;;;;;1.40;0.80;;;;;;;;;;4992737;28;20041;-56
2023/02/01 11:01:03;;;;;;;1.45;0.80;;;;;;;;;;4998504;28;20128;-55
2023/02/01 11:03:40;;;;;;;2.20;0.73;;;;;;;;;;4991737;28;20048;-58
2023/02/01 11:06:10;;;;;;;1.80;1.02;;;;;;;;;;4975520;28;20041;-57
2023/02/01 11:08:41;;;;;;;1.48;0.90;;;;;;;;;;4976455;28;20076;-57
2023/02/01 11:11:10;;;;;;;1.83;1.10;;;;;;;;;;4991752;28;20038;-55
2023/02/01 11:13:36;;;;;;;1.70;0.70;;;;;;;;;;5008685;28;20040;-57
2023/02/01 11:16:02;;;;;;;1.92;1.00;;;;;;;;;;5009206;28;20105;-56
2023/02/01 11:18:29;;;;;;;2.58;1.23;;;;;;;;;;4976009;28;20293;-59
2023/02/01 11:20:55;;;;;;;1.88;0.77;;;;;;;;;;4990906;28;20098;-57
2023/02/01 11:23:30;;;;;;;3.17;0.75;;;;;;;;;;5008425;28;20041;-59
2023/02/01 11:25:59;;;;;;;2.10;1.15;;;;;;;;;;4992119;28;20128;-56
2023/02/01 11:28:29;;;;;;;1.33;0.70;;;;;;;;;;5010264;28;20126;-59
2023/02/01 11:30:55;;;;;;;1.40;0.73;;;;;;;;;;4991566;28;20124;-56
2023/02/01 11:33:20;;;;;;;1.63;0.80;;;;;;;;;;4990410;28;20105;-58
2023/02/01 11:35:46;;;;;;;2.17;0.90;;;;;;;;;;4991195;28;20060;-56
2023/02/01 11:38:17;;;;;;;1.50;0.77;;;;;;;;;;5008319;28;20034;-56
2023/02/01 11:40:42;;;;;;;2.28;0.68;;;;;;;;;;4988709;28;20490;-55
2023/02/01 11:43:12;;;;;;;3.65;1.10;;;;;;;;;;5006456;28;20367;-57
2023/02/01 11:45:37;;;;;;;1.48;0.85;;;;;;;;;;4984709;28;20149;-56
2023/02/01 11:48:07;;;;;;;2.27;0.87;;;;;;;;;;5006189;28;20382;-58
2023/02/01 11:50:47;;;;;;;1.20;0.77;;;;;;;;;;4987045;28;20045;-56
2023/02/01 11:53:15;;;;;;;1.63;0.95;;;;;;;;;;5004468;28;20133;-57
2023/02/01 11:55:58;;;;;;;1.25;0.80;;;;;;;;;;5006653;28;20490;-56
2023/02/01 11:58:39;;;;;;;2.20;1.00;;;;;;;;;;5003203;28;20049;-58
2023/02/01 12:01:23;;;;;;;2.08;0.90;;;;;;;;;;4990897;28;20034;-56
2023/02/01 12:03:55;;;;;;;1.75;1.00;;;;;;;;;;5005182;28;20507;-57
2023/02/01 12:06:35;;;;;;;1.83;0.90;;;;;;;;;;5006040;28;20367;-57
2023/02/01 12:09:19;;;;;;;2.45;1.00;;;;;;;;;;5004374;28;20639;-56
2023/02/01 12:11:50;;;;;;;2.60;1.17;;;;;;;;;;5003444;28;20172;-55
2023/02/01 12:14:25;;;;;;;2.03;0.90;;;;;;;;;;5006829;28;20050;-61
2023/02/01 12:17:09;;;;;;;1.80;0.90;;;;;;;;;;5006850;28;20368;-60
2023/02/01 12:19:42;;;;;;;1.92;0.90;;;;;;;;;;5001565;28;20025;-57
2023/02/01 12:22:10;;;;;;;1.95;0.85;;;;;;;;;;5003763;28;20030;-59
2023/02/01 12:24:43;;;;;;;1.45;0.82;;;;;;;;;;4994439;28;20065;-58
2023/02/01 12:27:20;;;;;;;1.75;0.88;;;;;;;;;;4988302;28;20045;-58
2023/02/01 12:29:48;;;;;;;2.15;0.85;;;;;;;;;;4973115;28;20347;-59
2023/02/01 12:32:28;;;;;;;1.75;0.90;;;;;;;;;;5005646;28;20093;-61
2023/02/01 12:35:12;;;;;;;1.80;0.80;;;;;;;;;;5005752;28;20092;-58
2023/02/01 12:37:40;;;;;;;2.38;0.90;;;;;;;;;;4994279;28;20041;-57
2023/02/01 12:40:25;;;;;;;1.15;0.70;;;;;;;;;;5002485;28;20026;-57
2023/02/01 12:42:58;;;;;;;2.83;1.00;;;;;;;;;;5006494;28;20172;-57
2023/02/01 12:45:30;;;;;;;2.35;1.00;;;;;;;;;;4988187;28;20125;-56
2023/02/01 12:48:14;;;;;;;2.38;1.00;;;;;;;;;;4988396;28;20527;-58
2023/02/01 12:50:41;;;;;;;2.25;0.80;;;;;;;;;;4990424;28;20034;-57
2023/02/01 12:53:23;;;;;;;2.15;1.10;;;;;;;;;;4980147;28;20066;-58
2023/02/01 12:55:55;;;;;;;1.73;0.77;;;;;;;;;;4985168;28;20022;-57
2023/02/01 12:58:26;;;;;;;2.90;1.02;;;;;;;;;;5004311;28;20041;-58
2023/02/01 13:01:03;;;;;;;2.05;1.23;;;;;;;;;;4969713;28;20038;-58
2023/02/01 13:03:34;;;;;;;1.95;1.00;;;;;;;;;;4969043;28;20077;-57
2023/02/01 13:06:04;;;;;;;3.33;1.13;;;;;;;;;;5005897;28;20121;-57
2023/02/01 13:08:36;;;;;;;1.65;0.90;;;;;;;;;;4988267;28;20017;-57
2023/02/01 13:11:24;;;;;;;2.03;1.00;;;;;;;;;;5003990;28;20037;-58
2023/02/01 13:14:15;;;;;;;1.52;0.82;;;;;;;;;;4997389;28;20909;-57
2023/02/01 13:16:42;;;;;;;2.17;1.08;;;;;;;;;;4992894;28;20569;-56
2023/02/01 13:19:10;;;;;;;2.38;1.10;;;;;;;;;;4995860;28;20117;-57
2023/02/01 13:21:37;;;;;;;2.38;0.90;;;;;;;;;;5005987;28;20049;-57
2023/02/01 13:24:03;;;;;;;2.53;1.20;;;;;;;;;;4988110;28;20403;-58
2023/02/01 13:26:28;;;;;;;2.28;1.00;;;;;;;;;;4971353;28;20045;-58
2023/02/01 13:28:58;;;;;;;2.27;1.00;;;;;;;;;;5004772;28;20621;-57
2023/02/01 13:31:42;;;;;;;3.20;1.00;;;;;;;;;;4970595;28;20092;-59
2023/02/01 13:34:26;;;;;;;2.22;1.23;;;;;;;;;;5003735;28;20060;-59
2023/02/01 13:37:04;;;;;;;1.85;0.90;;;;;;;;;;4998754;28;20038;-58
2023/02/01 13:39:47;;;;;;;1.70;0.95;;;;;;;;;;4985575;28;20034;-58
2023/02/01 13:42:18;;;;;;;2.53;1.05;;;;;;;;;;4966324;28;20030;-58
2023/02/01 13:44:48;;;;;;;2.20;1.00;;;;;;;;;;5000680;28;20168;-57
2023/02/01 13:47:26;;;;;;;2.80;1.00;;;;;;;;;;4965693;28;20038;-57
2023/02/01 13:49:52;;;;;;;4.43;1.10;;;;;;;;;;4983443;28;20042;-58
2023/02/01 13:52:38;;;;;;;2.97;1.10;;;;;;;;;;4984492;28;20049;-57
2023/02/01 13:55:21;;;;;;;3.10;1.20;;;;;;;;;;4981210;28;20046;-57
2023/02/01 13:57:47;;;;;;;6.57;1.00;;;;;;;;;;4981980;28;20715;-57
2023/02/01 14:00:30;;;;;;;2.45;1.20;;;;;;;;;;4965238;28;20034;-57
2023/02/01 14:03:01;;;;;;;2.47;1.02;;;;;;;;;;4978115;28;20041;-57
2023/02/01 14:05:26;;;;;;;3.25;1.15;;;;;;;;;;4973033;28;20418;-54
2023/02/01 14:08:04;;;;;;;2.87;1.20;;;;;;;;;;4993628;28;20043;-56
2023/02/01 14:10:45;;;;;;;2.97;1.08;;;;;;;;;;4998751;28;20544;-58
2023/02/01 14:13:25;;;;;;;3.05;1.10;;;;;;;;;;5000522;28;20140;-57
2023/02/01 14:16:02;;;;;;;3.60;1.20;;;;;;;;;;5004448;28;20038;-57
2023/02/01 14:18:37;;;;;;;4.07;1.38;;;;;;;;;;5013738;28;20439;-55
2023/02/01 14:21:12;;;;;;;3.22;1.05;;;;;;;;;;5001734;28;20132;-57
2023/02/01 14:23:38;;;;;;;2.70;1.10;;;;;;;;;;4985827;28;20061;-61
2023/02/01 14:26:04;;;;;;;2.53;1.20;;;;;;;;;;4983700;28;20045;-55
2023/02/01 14:28:29;;;;;;;2.40;1.20;;;;;;;;;;5003250;28;20034;-58
2023/02/01 14:30:56;;;;;;;4.10;1.30;;;;;;;;;;4985089;28;20443;-58
2023/02/01 14:33:22;;;;;;;3.38;1.20;;;;;;;;;;4985925;28;20799;-59
2023/02/01 14:35:55;;;;;;;3.00;1.27;;;;;;;;;;4992680;28;20428;-59
2023/02/01 14:38:20;;;;;;;2.38;1.08;;;;;;;;;;4957329;28;20108;-54
2023/02/01 14:40:46;;;;;;;2.23;1.10;;;;;;;;;;4989140;28;20033;-59
2023/02/01 14:43:11;;;;;;;4.07;1.30;;;;;;;;;;4949116;28;20305;-57
2023/02/01 14:45:36;;;;;;;2.90;1.20;;;;;;;;;;4985756;28;20309;-57
2023/02/01 14:48:04;;;;;;;2.77;1.50;;;;;;;;;;4984382;28;20265;-58
2023/02/01 14:50:32;;;;;;;2.38;1.10;;;;;;;;;;4975892;28;20822;-56
2023/02/01 14:53:12;;;;;;;3.67;1.20;;;;;;;;;;4983963;28;20031;-57
2023/02/01 14:55:46;;;;;;;3.45;1.50;;;;;;;;;;4987235;28;20030;-57
2023/02/01 14:58:30;;;;;;;2.15;0.98;;;;;;;;;;4984146;28;20054;-58
2023/02/01 15:01:00;;;;;;;2.72;1.27;;;;;;;;;;4982951;28;20030;-58
2023/02/01 15:03:25;;;;;;;2.30;1.00;;;;;;;;;;4983261;28;20062;-57
2023/02/01 15:05:57;;;;;;;1.80;1.08;;;;;;;;;;4984729;28;20038;-60
2023/02/01 15:08:43;;;;;;;2.95;1.20;;;;;;;;;;4967284;28;20042;-57
2023/02/01 15:11:11;;;;;;;2.75;1.23;;;;;;;;;;4965504;28;20363;-58
2023/02/01 15:13:36;;;;;;;2.67;1.33;;;;;;;;;;4936337;28;20030;-57
2023/02/01 15:16:12;;;;;;;2.80;1.37;;;;;;;;;;4986887;28;20034;-58
2023/02/01 15:18:37;;;;;;;2.60;1.23;;;;;;;;;;4970846;28;20117;-58
2023/02/01 15:21:03;;;;;;;2.22;1.20;;;;;;;;;;4965318;28;20456;-61